createdAt,value
2017-06-18T00:00:20.858Z,0
2017-06-18T00:01:33.354Z,0
2017-06-18T00:02:45.595Z,0
2017-06-18T00:03:58.146Z,0
2017-06-18T00:05:10.387Z,0
2017-06-18T00:06:22.612Z,0
2017-06-18T00:07:34.829Z,0
2017-06-18T00:08:47.049Z,0
2017-06-18T00:09:59.292Z,0
2017-06-18T00:11:11.825Z,0
2017-06-18T00:12:24.389Z,0
2017-06-18T00:13:36.301Z,0
2017-06-18T00:14:48.848Z,0
2017-06-18T00:16:01.400Z,0
2017-06-18T00:17:13.624Z,0
2017-06-18T00:18:26.142Z,0
2017-06-18T00:19:38.664Z,0
2017-06-18T00:20:50.888Z,0
2017-06-18T00:22:03.430Z,0
2017-06-18T00:23:15.357Z,0
2017-06-18T00:24:27.601Z,0
2017-06-18T00:25:39.821Z,0
2017-06-18T00:26:52.367Z,0
2017-06-18T00:28:04.589Z,0
2017-06-18T00:29:16.836Z,0
2017-06-18T00:30:29.057Z,0
2017-06-18T00:31:41.581Z,0
2017-06-18T00:32:53.823Z,0
2017-06-18T00:34:06.060Z,0
2017-06-18T00:35:18.582Z,0
2017-06-18T00:36:31.109Z,0
2017-06-18T00:37:43.657Z,0
2017-06-18T00:38:56.156Z,0
2017-06-18T00:40:08.397Z,0
2017-06-18T00:41:20.915Z,0
2017-06-18T00:42:33.457Z,0
2017-06-18T00:43:45.707Z,0
2017-06-18T00:44:58.228Z,0
2017-06-18T00:46:10.749Z,0
2017-06-18T00:47:23.251Z,0
2017-06-18T00:48:35.798Z,0
2017-06-18T00:49:48.014Z,0
2017-06-18T00:51:00.537Z,0
2017-06-18T00:52:12.781Z,0
2017-06-18T00:53:24.745Z,0
2017-06-18T00:54:37.016Z,0
2017-06-18T00:55:49.245Z,0
2017-06-18T00:57:01.763Z,0
2017-06-18T00:58:14.303Z,0
2017-06-18T00:59:26.549Z,0
2017-06-18T01:00:39.092Z,0
2017-06-18T01:01:51.616Z,0
2017-06-18T01:03:03.587Z,0
2017-06-18T01:04:15.508Z,0
2017-06-18T01:05:27.734Z,0
2017-06-18T01:06:40.254Z,0
2017-06-18T01:07:52.544Z,0
2017-06-18T01:09:05.073Z,0
2017-06-18T01:10:17.620Z,0
2017-06-18T01:11:30.166Z,0
2017-06-18T01:12:42.738Z,0
2017-06-18T01:13:54.980Z,0
2017-06-18T01:15:07.204Z,0
2017-06-18T01:16:19.749Z,0
2017-06-18T01:17:32.288Z,0
2017-06-18T01:18:44.491Z,0
2017-06-18T01:19:56.987Z,0
2017-06-18T01:21:09.210Z,0
2017-06-18T01:22:21.447Z,0
2017-06-18T01:23:33.378Z,0
2017-06-18T01:24:45.918Z,0
2017-06-18T01:25:58.417Z,0
2017-06-18T01:27:10.962Z,0
2017-06-18T01:28:23.203Z,0
2017-06-18T01:29:35.402Z,0
2017-06-18T01:30:47.927Z,0
2017-06-18T01:32:00.144Z,0
2017-06-18T01:33:12.668Z,0
2017-06-18T01:34:24.915Z,0
2017-06-18T01:35:37.456Z,0
2017-06-18T01:36:49.981Z,0
2017-06-18T01:38:02.541Z,0
2017-06-18T01:39:14.795Z,0
2017-06-18T01:40:27.316Z,0
2017-06-18T01:41:39.537Z,0
2017-06-18T01:42:52.060Z,0
2017-06-18T01:44:04.608Z,0
2017-06-18T01:45:17.152Z,0
2017-06-18T01:46:29.095Z,0
2017-06-18T01:47:41.619Z,0
2017-06-18T01:48:54.162Z,0
2017-06-18T01:50:06.686Z,0
2017-06-18T01:51:18.599Z,0
2017-06-18T01:52:30.817Z,0
2017-06-18T01:53:43.375Z,0
2017-06-18T01:54:55.920Z,0
2017-06-18T01:56:08.480Z,0
2017-06-18T01:57:21.036Z,0
2017-06-18T01:58:33.264Z,0
2017-06-18T01:59:45.479Z,0
2017-06-18T02:00:58.048Z,0
2017-06-18T02:02:09.970Z,0
2017-06-18T02:03:22.487Z,0
2017-06-18T02:04:35.005Z,0
2017-06-18T02:05:47.532Z,0
2017-06-18T02:07:00.071Z,0
2017-06-18T02:08:12.571Z,0
2017-06-18T02:09:24.532Z,0
2017-06-18T02:10:36.759Z,0
2017-06-18T02:11:49.264Z,0
2017-06-18T02:13:01.784Z,0
2017-06-18T02:14:14.000Z,0
2017-06-18T02:15:26.221Z,0
2017-06-18T02:16:38.724Z,0
2017-06-18T02:17:51.281Z,0
2017-06-18T02:19:03.831Z,0
2017-06-18T02:20:16.056Z,0
2017-06-18T02:21:28.303Z,0
2017-06-18T02:22:40.851Z,0
2017-06-18T02:23:53.388Z,0
2017-06-18T02:25:05.345Z,0
2017-06-18T02:26:18.166Z,0
2017-06-18T02:27:30.709Z,0
2017-06-18T02:28:43.226Z,0
2017-06-18T02:29:55.154Z,0
2017-06-18T02:31:07.669Z,0
2017-06-18T02:32:20.164Z,0
2017-06-18T02:33:32.702Z,0
2017-06-18T02:34:45.250Z,5
2017-06-18T02:35:57.494Z,5
2017-06-18T02:37:10.003Z,5
2017-06-18T02:38:21.949Z,5
2017-06-18T02:39:34.495Z,5
2017-06-18T02:40:46.714Z,5
2017-06-18T02:41:59.261Z,5
2017-06-18T02:43:11.798Z,5
2017-06-18T02:44:24.341Z,10
2017-06-18T02:45:36.849Z,10
2017-06-18T02:46:49.358Z,10
2017-06-18T02:48:01.607Z,10
2017-06-18T02:49:14.153Z,10
2017-06-18T02:50:26.404Z,15
2017-06-18T02:51:38.644Z,15
2017-06-18T02:52:51.148Z,15
2017-06-18T02:54:03.686Z,15
2017-06-18T02:55:15.637Z,15
2017-06-18T02:56:28.175Z,20
2017-06-18T02:57:40.703Z,20
2017-06-18T02:58:53.224Z,20
2017-06-18T03:00:05.749Z,20
2017-06-18T03:01:18.267Z,25
2017-06-18T03:02:30.816Z,25
2017-06-18T03:03:43.350Z,25
2017-06-18T03:04:55.597Z,25
2017-06-18T03:06:08.154Z,30
2017-06-18T03:07:20.678Z,30
2017-06-18T03:08:33.237Z,30
2017-06-18T03:09:46.058Z,30
2017-06-18T03:10:58.000Z,35
2017-06-18T03:12:10.507Z,35
2017-06-18T03:13:22.746Z,35
2017-06-18T03:14:35.275Z,35
2017-06-18T03:15:47.813Z,40
2017-06-18T03:17:00.314Z,40
2017-06-18T03:18:11.955Z,40
2017-06-18T03:19:24.184Z,40
2017-06-18T03:20:36.719Z,45
2017-06-18T03:21:49.271Z,45
2017-06-18T03:23:01.496Z,45
2017-06-18T03:24:14.042Z,45
2017-06-18T03:25:26.559Z,50
2017-06-18T03:26:39.074Z,50
2017-06-18T03:27:51.604Z,50
2017-06-18T03:29:03.826Z,50
2017-06-18T03:30:16.048Z,55
2017-06-18T03:31:28.592Z,55
2017-06-18T03:32:41.127Z,55
2017-06-18T03:33:53.660Z,55
2017-06-18T03:35:06.197Z,60
2017-06-18T03:36:18.448Z,60
2017-06-18T03:37:30.390Z,60
2017-06-18T03:38:42.891Z,60
2017-06-18T03:39:55.112Z,65
2017-06-18T03:41:07.608Z,65
2017-06-18T03:42:19.831Z,65
2017-06-18T03:43:32.329Z,65
2017-06-18T03:44:44.573Z,65
2017-06-18T03:45:57.086Z,70
2017-06-18T03:47:09.586Z,70
2017-06-18T03:48:22.127Z,70
2017-06-18T03:49:34.383Z,70
2017-06-18T03:50:46.927Z,75
2017-06-18T03:51:59.170Z,75
2017-06-18T03:53:11.687Z,75
2017-06-18T03:54:23.936Z,75
2017-06-18T03:55:36.192Z,75
2017-06-18T03:56:48.706Z,80
2017-06-18T03:58:00.941Z,80
2017-06-18T03:59:13.471Z,80
2017-06-18T04:00:25.733Z,80
2017-06-18T04:01:37.962Z,85
2017-06-18T04:02:50.458Z,85
2017-06-18T04:04:02.978Z,85
2017-06-18T04:05:15.243Z,85
2017-06-18T04:06:27.788Z,85
2017-06-18T04:07:40.319Z,85
2017-06-18T04:08:52.837Z,90
2017-06-18T04:10:05.065Z,90
2017-06-18T04:11:16.996Z,90
2017-06-18T04:12:29.228Z,90
2017-06-18T04:13:41.768Z,90
2017-06-18T04:14:54.292Z,95
2017-06-18T04:16:06.818Z,95
2017-06-18T04:17:19.042Z,95
2017-06-18T04:18:31.300Z,95
2017-06-18T04:19:43.805Z,100
2017-06-18T04:20:55.726Z,100
2017-06-18T04:22:08.269Z,100
2017-06-18T04:23:20.789Z,100
2017-06-18T04:24:32.984Z,100
2017-06-18T04:25:45.522Z,105
2017-06-18T04:26:58.033Z,105
2017-06-18T04:28:10.576Z,105
2017-06-18T04:29:23.123Z,105
2017-06-18T04:30:35.382Z,105
2017-06-18T04:31:47.910Z,110
2017-06-18T04:33:00.433Z,110
2017-06-18T04:34:12.972Z,110
2017-06-18T04:35:25.501Z,110
2017-06-18T04:36:38.041Z,110
2017-06-18T04:37:50.590Z,115
2017-06-18T04:39:02.813Z,115
2017-06-18T04:40:15.356Z,115
2017-06-18T04:41:27.880Z,115
2017-06-18T04:42:40.102Z,115
2017-06-18T04:43:52.319Z,120
2017-06-18T04:45:04.819Z,120
2017-06-18T04:46:17.045Z,120
2017-06-18T04:47:29.278Z,125
2017-06-18T04:48:41.479Z,125
2017-06-18T04:49:53.673Z,125
2017-06-18T04:51:05.894Z,125
2017-06-18T04:52:18.436Z,130
2017-06-18T04:53:30.982Z,130
2017-06-18T04:54:43.210Z,130
2017-06-18T04:55:55.172Z,135
2017-06-18T04:57:07.699Z,140
2017-06-18T04:58:19.911Z,140
2017-06-18T04:59:31.837Z,145
2017-06-18T05:00:44.041Z,145
2017-06-18T05:01:56.562Z,145
2017-06-18T05:03:09.081Z,150
2017-06-18T05:04:20.999Z,155
2017-06-18T05:05:33.546Z,165
2017-06-18T05:06:46.070Z,185
2017-06-18T05:07:58.594Z,200
2017-06-18T05:09:11.113Z,215
2017-06-18T05:10:23.332Z,205
2017-06-18T05:11:35.876Z,225
2017-06-18T05:12:48.117Z,270
2017-06-18T05:14:00.645Z,240
2017-06-18T05:15:12.865Z,220
2017-06-18T05:16:25.389Z,235
2017-06-18T05:17:37.925Z,270
2017-06-18T05:18:50.429Z,285
2017-06-18T05:20:02.651Z,320
2017-06-18T05:21:15.167Z,320
2017-06-18T05:22:27.663Z,305
2017-06-18T05:23:40.185Z,275
2017-06-18T05:24:52.384Z,290
2017-06-18T05:26:04.902Z,425
2017-06-18T05:27:17.426Z,480
2017-06-18T05:28:29.671Z,415
2017-06-18T05:29:42.221Z,330
2017-06-18T05:30:54.760Z,415
2017-06-18T05:32:07.274Z,345
2017-06-18T05:33:19.798Z,245
2017-06-18T05:34:32.340Z,210
2017-06-18T05:35:44.871Z,195
2017-06-18T05:36:57.416Z,220
2017-06-18T05:38:09.377Z,225
2017-06-18T05:39:21.606Z,275
2017-06-18T05:40:34.152Z,270
2017-06-18T05:41:46.651Z,185
2017-06-18T05:42:59.194Z,185
2017-06-18T05:44:11.440Z,190
2017-06-18T05:45:23.985Z,185
2017-06-18T05:46:36.531Z,190
2017-06-18T05:47:49.056Z,190
2017-06-18T05:49:01.594Z,190
2017-06-18T05:50:13.826Z,195
2017-06-18T05:51:26.067Z,205
2017-06-18T05:52:38.282Z,205
2017-06-18T05:53:50.812Z,210
2017-06-18T05:55:03.356Z,205
2017-06-18T05:56:15.877Z,205
2017-06-18T05:57:28.399Z,215
2017-06-18T05:58:40.340Z,220
2017-06-18T05:59:52.887Z,230
2017-06-18T06:01:05.138Z,225
2017-06-18T06:02:17.657Z,235
2017-06-18T06:03:30.494Z,245
2017-06-18T06:04:42.716Z,265
2017-06-18T06:05:55.216Z,265
2017-06-18T06:07:07.155Z,270
2017-06-18T06:08:19.383Z,345
2017-06-18T06:09:31.608Z,390
2017-06-18T06:10:44.129Z,390
2017-06-18T06:11:56.050Z,405
2017-06-18T06:13:08.560Z,320
2017-06-18T06:14:21.083Z,360
2017-06-18T06:15:33.611Z,350
2017-06-18T06:16:46.156Z,340
2017-06-18T06:17:58.396Z,365
2017-06-18T06:19:10.327Z,500
2017-06-18T06:20:22.871Z,770
2017-06-18T06:21:35.415Z,765
2017-06-18T06:22:47.610Z,970
2017-06-18T06:23:59.849Z,1025
2017-06-18T06:25:12.705Z,1075
2017-06-18T06:26:25.250Z,1075
2017-06-18T06:27:37.793Z,1050
2017-06-18T06:28:50.288Z,840
2017-06-18T06:30:02.513Z,845
2017-06-18T06:31:14.734Z,960
2017-06-18T06:32:27.251Z,1050
2017-06-18T06:33:39.772Z,1045
2017-06-18T06:34:52.297Z,910
2017-06-18T06:36:04.840Z,980
2017-06-18T06:37:17.406Z,1105
2017-06-18T06:38:29.634Z,1110
2017-06-18T06:39:42.204Z,1085
2017-06-18T06:40:54.125Z,1120
2017-06-18T06:42:06.664Z,1150
2017-06-18T06:43:18.607Z,1120
2017-06-18T06:44:30.857Z,1125
2017-06-18T06:45:43.427Z,1120
2017-06-18T06:46:55.998Z,1125
2017-06-18T06:48:07.358Z,1115
2017-06-18T06:49:19.598Z,1090
2017-06-18T06:50:31.841Z,1105
2017-06-18T06:51:44.388Z,1120
2017-06-18T06:52:56.960Z,1130
2017-06-18T06:54:09.207Z,1120
2017-06-18T06:55:21.451Z,1115
2017-06-18T06:56:33.670Z,1165
2017-06-18T06:57:45.908Z,1190
2017-06-18T06:58:57.840Z,1185
2017-06-18T07:00:10.103Z,1195
2017-06-18T07:01:22.674Z,1215
2017-06-18T07:02:34.320Z,1250
2017-06-18T07:03:46.875Z,1295
2017-06-18T07:04:59.420Z,1305
2017-06-18T07:06:11.679Z,1320
2017-06-18T07:07:24.208Z,1330
2017-06-18T07:08:36.764Z,1355
2017-06-18T07:09:49.323Z,1395
2017-06-18T07:11:00.974Z,1410
2017-06-18T07:12:13.495Z,1470
2017-06-18T07:13:25.755Z,1540
2017-06-18T07:14:38.002Z,1590
2017-06-18T07:15:50.528Z,885
2017-06-18T07:17:02.475Z,1325
2017-06-18T07:18:14.721Z,1560
2017-06-18T07:19:26.987Z,1465
2017-06-18T07:20:38.930Z,1585
2017-06-18T07:21:50.860Z,1625
2017-06-18T07:23:03.406Z,1715
2017-06-18T07:24:15.943Z,1765
2017-06-18T07:25:28.502Z,1755
2017-06-18T07:26:40.442Z,1750
2017-06-18T07:27:52.687Z,1755
2017-06-18T07:29:04.938Z,1820
2017-06-18T07:30:17.207Z,845
2017-06-18T07:31:28.852Z,410
2017-06-18T07:32:41.392Z,1850
2017-06-18T07:33:53.947Z,625
2017-06-18T07:35:06.532Z,1790
2017-06-18T07:36:19.081Z,1835
2017-06-18T07:37:31.649Z,1885
2017-06-18T07:38:44.202Z,1985
2017-06-18T07:39:56.727Z,1875
2017-06-18T07:41:09.262Z,2040
2017-06-18T07:42:21.807Z,2125
2017-06-18T07:43:34.363Z,2120
2017-06-18T07:44:46.934Z,2005
2017-06-18T07:45:59.481Z,535
2017-06-18T07:47:11.998Z,2090
2017-06-18T07:48:24.540Z,2115
2017-06-18T07:49:36.768Z,1745
2017-06-18T07:50:49.013Z,2165
2017-06-18T07:52:01.557Z,1555
2017-06-18T07:53:13.796Z,610
2017-06-18T07:54:26.023Z,2395
2017-06-18T07:55:38.250Z,2495
2017-06-18T07:56:50.507Z,690
2017-06-18T07:58:03.065Z,2295
2017-06-18T07:59:15.607Z,565
2017-06-18T08:00:28.158Z,1385
2017-06-18T08:01:40.719Z,1365
2017-06-18T08:02:52.945Z,2540
2017-06-18T08:04:04.893Z,2560
2017-06-18T08:05:16.841Z,2760
2017-06-18T08:06:29.387Z,605
2017-06-18T08:07:41.929Z,495
2017-06-18T08:08:54.154Z,670
2017-06-18T08:10:06.716Z,2285
2017-06-18T08:11:19.295Z,2460
2017-06-18T08:12:31.890Z,2485
2017-06-18T08:13:43.854Z,2670
2017-06-18T08:14:56.097Z,875
2017-06-18T08:16:08.308Z,540
2017-06-18T08:17:20.825Z,440
2017-06-18T08:18:33.373Z,2410
2017-06-18T08:19:45.913Z,2345
2017-06-18T08:20:58.437Z,2415
2017-06-18T08:22:10.985Z,2535
2017-06-18T08:23:23.529Z,2345
2017-06-18T08:24:36.088Z,2360
2017-06-18T08:25:48.621Z,2450
2017-06-18T08:27:01.168Z,2590
2017-06-18T08:28:13.412Z,2710
2017-06-18T08:29:25.956Z,2650
2017-06-18T08:30:38.505Z,2725
2017-06-18T08:31:51.026Z,2690
2017-06-18T08:33:03.567Z,2875
2017-06-18T08:34:16.091Z,2655
2017-06-18T08:35:28.657Z,2790
2017-06-18T08:36:41.227Z,3040
2017-06-18T08:37:53.752Z,2910
2017-06-18T08:39:06.004Z,1830
2017-06-18T08:40:18.273Z,915
2017-06-18T08:41:30.535Z,725
2017-06-18T08:42:43.060Z,2480
2017-06-18T08:43:55.652Z,1580
2017-06-18T08:45:07.603Z,2875
2017-06-18T08:46:20.165Z,2875
2017-06-18T08:47:32.444Z,2620
2017-06-18T08:48:44.668Z,2615
2017-06-18T08:49:57.265Z,2905
2017-06-18T08:51:09.551Z,2825
2017-06-18T08:52:21.828Z,2695
2017-06-18T08:53:34.405Z,2945
2017-06-18T08:54:46.987Z,3080
2017-06-18T08:55:59.557Z,3080
2017-06-18T08:57:12.153Z,2985
2017-06-18T08:58:24.703Z,2975
2017-06-18T08:59:37.281Z,2930
2017-06-18T09:00:49.224Z,3035
2017-06-18T09:02:01.774Z,3110
2017-06-18T09:03:14.358Z,3075
2017-06-18T09:04:26.594Z,3025
2017-06-18T09:05:39.164Z,3175
2017-06-18T09:06:51.430Z,3155
2017-06-18T09:08:03.998Z,3060
2017-06-18T09:09:15.963Z,3320
2017-06-18T09:10:28.520Z,3285
2017-06-18T09:11:41.093Z,3150
2017-06-18T09:12:53.661Z,3185
2017-06-18T09:14:05.908Z,2985
2017-06-18T09:15:17.853Z,3085
2017-06-18T09:16:30.413Z,3235
2017-06-18T09:17:42.971Z,3250
2017-06-18T09:18:55.233Z,3365
2017-06-18T09:20:07.499Z,3220
2017-06-18T09:21:19.775Z,3415
2017-06-18T09:22:32.031Z,3370
2017-06-18T09:23:44.303Z,3450
2017-06-18T09:24:56.872Z,3415
2017-06-18T09:26:09.480Z,3345
2017-06-18T09:27:21.755Z,3390
2017-06-18T09:28:34.306Z,3310
2017-06-18T09:29:46.568Z,3520
2017-06-18T09:30:58.821Z,3645
2017-06-18T09:32:10.770Z,3450
2017-06-18T09:33:23.042Z,3415
2017-06-18T09:34:35.609Z,3510
2017-06-18T09:35:47.585Z,3580
2017-06-18T09:36:59.579Z,3530
2017-06-18T09:38:11.850Z,3250
2017-06-18T09:39:24.397Z,3475
2017-06-18T09:40:36.694Z,3535
2017-06-18T09:41:48.656Z,3580
2017-06-18T09:43:00.906Z,3610
2017-06-18T09:44:13.152Z,3690
2017-06-18T09:45:25.701Z,3670
2017-06-18T09:46:38.264Z,3635
2017-06-18T09:47:50.517Z,3725
2017-06-18T09:49:03.090Z,3380
2017-06-18T09:50:15.652Z,3520
2017-06-18T09:51:27.931Z,3870
2017-06-18T09:52:39.891Z,3855
2017-06-18T09:53:52.436Z,3590
2017-06-18T09:55:04.991Z,3615
2017-06-18T09:56:16.661Z,3800
2017-06-18T09:57:29.207Z,3530
2017-06-18T09:58:41.779Z,3740
2017-06-18T09:59:54.044Z,3865
2017-06-18T10:01:06.599Z,3695
2017-06-18T10:02:19.183Z,3680
2017-06-18T10:03:31.412Z,3935
2017-06-18T10:04:43.957Z,3875
2017-06-18T10:05:56.224Z,3885
2017-06-18T10:07:08.802Z,3800
2017-06-18T10:08:21.074Z,3535
2017-06-18T10:09:33.641Z,3860
2017-06-18T10:10:45.879Z,4190
2017-06-18T10:11:58.135Z,4060
2017-06-18T10:13:10.379Z,3885
2017-06-18T10:14:22.946Z,4030
2017-06-18T10:15:35.247Z,3795
2017-06-18T10:16:47.848Z,3770
2017-06-18T10:18:00.461Z,4120
2017-06-18T10:19:12.157Z,3725
2017-06-18T10:20:24.396Z,3950
2017-06-18T10:21:36.633Z,4405
2017-06-18T10:22:49.226Z,4300
2017-06-18T10:24:01.812Z,4180
2017-06-18T10:25:14.090Z,3775
2017-06-18T10:26:26.637Z,3830
2017-06-18T10:27:38.908Z,4065
2017-06-18T10:28:51.154Z,4250
2017-06-18T10:30:03.425Z,4415
2017-06-18T10:31:15.078Z,4245
2017-06-18T10:32:27.342Z,3865
2017-06-18T10:33:39.905Z,3955
2017-06-18T10:34:51.883Z,4145
2017-06-18T10:36:04.154Z,4520
2017-06-18T10:37:16.750Z,4210
2017-06-18T10:38:29.314Z,4120
2017-06-18T10:39:41.884Z,4185
2017-06-18T10:40:54.439Z,4260
2017-06-18T10:42:06.980Z,4175
2017-06-18T10:43:19.240Z,4070
2017-06-18T10:44:31.526Z,4065
2017-06-18T10:45:44.086Z,4195
2017-06-18T10:46:56.639Z,4085
2017-06-18T10:48:08.886Z,3960
2017-06-18T10:49:21.155Z,3935
2017-06-18T10:50:33.423Z,3865
2017-06-18T10:51:45.690Z,3955
2017-06-18T10:52:58.248Z,3925
2017-06-18T10:54:10.208Z,3765
2017-06-18T10:55:22.786Z,3650
2017-06-18T10:56:35.027Z,3785
2017-06-18T10:57:47.301Z,3935
2017-06-18T10:58:59.870Z,4040
2017-06-18T11:00:11.890Z,3780
2017-06-18T11:01:24.458Z,3820
2017-06-18T11:02:36.686Z,3585
2017-06-18T11:03:49.232Z,3565
2017-06-18T11:05:01.482Z,3640
2017-06-18T11:06:13.726Z,3545
2017-06-18T11:07:26.272Z,3530
2017-06-18T11:08:38.836Z,3070
2017-06-18T11:09:51.390Z,2900
2017-06-18T11:11:03.665Z,3105
2017-06-18T11:12:16.258Z,2920
2017-06-18T11:13:28.529Z,3010
2017-06-18T11:14:40.491Z,3200
2017-06-18T11:15:53.038Z,3055
2017-06-18T11:17:05.591Z,2975
2017-06-18T11:18:17.851Z,2750
2017-06-18T11:19:30.407Z,2615
2017-06-18T11:20:42.954Z,2535
2017-06-18T11:21:55.526Z,2460
2017-06-18T11:23:07.495Z,2195
2017-06-18T11:24:19.491Z,1985
2017-06-18T11:25:32.083Z,2215
2017-06-18T11:26:44.335Z,2120
2017-06-18T11:27:56.580Z,2045
2017-06-18T11:29:09.125Z,1950
2017-06-18T11:30:21.110Z,2000
2017-06-18T11:31:33.641Z,1970
2017-06-18T11:32:45.927Z,1865
2017-06-18T11:33:58.481Z,1815
2017-06-18T11:35:11.003Z,1690
2017-06-18T11:36:22.968Z,1760
2017-06-18T11:37:35.248Z,1875
2017-06-18T11:38:47.535Z,1905
2017-06-18T11:39:59.460Z,1870
2017-06-18T11:41:12.012Z,1730
2017-06-18T11:42:24.602Z,1735
2017-06-18T11:43:37.152Z,1755
2017-06-18T11:44:49.696Z,1645
2017-06-18T11:46:02.217Z,1720
2017-06-18T11:47:14.489Z,1735
2017-06-18T11:48:26.756Z,1770
2017-06-18T11:49:39.007Z,1810
2017-06-18T11:50:51.582Z,1755
2017-06-18T11:52:04.147Z,1680
2017-06-18T11:53:16.710Z,2095
2017-06-18T11:54:29.262Z,2595
2017-06-18T11:55:41.535Z,3425
2017-06-18T11:56:54.081Z,4400
2017-06-18T11:58:06.627Z,4880
2017-06-18T11:59:18.613Z,5120
2017-06-18T12:00:31.186Z,4810
2017-06-18T12:01:43.463Z,4455
2017-06-18T12:02:55.688Z,4615
2017-06-18T12:04:08.277Z,4435
2017-06-18T12:05:20.554Z,4415
2017-06-18T12:06:32.841Z,5235
2017-06-18T12:07:45.386Z,5410
2017-06-18T12:08:57.940Z,5500
2017-06-18T12:10:10.508Z,5230
2017-06-18T12:11:22.761Z,5345
2017-06-18T12:12:35.028Z,5015
2017-06-18T12:13:47.599Z,4325
2017-06-18T12:14:59.884Z,3750
2017-06-18T12:16:12.433Z,3800
2017-06-18T12:17:24.704Z,3810
2017-06-18T12:18:37.279Z,4095
2017-06-18T12:19:49.828Z,4170
2017-06-18T12:21:01.795Z,4360
2017-06-18T12:22:13.773Z,4385
2017-06-18T12:23:26.333Z,4420
2017-06-18T12:24:38.887Z,4575
2017-06-18T12:25:51.133Z,4260
2017-06-18T12:27:03.375Z,3850
2017-06-18T12:28:15.646Z,3930
2017-06-18T12:29:28.192Z,4450
2017-06-18T12:30:40.469Z,4585
2017-06-18T12:31:52.709Z,4635
2017-06-18T12:33:05.287Z,4520
2017-06-18T12:34:17.857Z,4650
2017-06-18T12:35:30.422Z,4655
2017-06-18T12:36:42.973Z,4500
2017-06-18T12:37:55.217Z,4840
2017-06-18T12:39:07.462Z,4990
2017-06-18T12:40:19.406Z,5010
2017-06-18T12:41:31.633Z,4840
2017-06-18T12:42:44.199Z,4845
2017-06-18T12:43:56.797Z,4605
2017-06-18T12:45:08.745Z,4850
2017-06-18T12:46:21.312Z,4795
2017-06-18T12:47:33.574Z,4920
2017-06-18T12:48:46.153Z,5075
2017-06-18T12:49:58.415Z,5305
2017-06-18T12:51:10.961Z,5260
2017-06-18T12:52:23.240Z,5180
2017-06-18T12:53:35.790Z,5225
2017-06-18T12:54:48.361Z,5230
2017-06-18T12:56:00.634Z,5110
2017-06-18T12:57:12.318Z,5050
2017-06-18T12:58:24.577Z,5070
2017-06-18T12:59:36.818Z,5155
2017-06-18T13:00:49.061Z,5100
2017-06-18T13:02:01.602Z,5080
2017-06-18T13:03:13.552Z,5115
2017-06-18T13:04:25.791Z,4960
2017-06-18T13:05:38.050Z,4795
2017-06-18T13:06:50.620Z,4625
2017-06-18T13:08:03.190Z,4950
2017-06-18T13:09:15.483Z,5490
2017-06-18T13:10:28.034Z,5395
2017-06-18T13:11:40.316Z,5390
2017-06-18T13:12:52.613Z,5580
2017-06-18T13:14:05.169Z,5905
2017-06-18T13:15:16.816Z,5390
2017-06-18T13:16:29.092Z,5100
2017-06-18T13:17:41.082Z,4955
2017-06-18T13:18:53.044Z,5135
2017-06-18T13:20:05.023Z,5775
2017-06-18T13:21:16.685Z,5680
2017-06-18T13:22:28.629Z,5450
2017-06-18T13:23:40.909Z,5640
2017-06-18T13:24:52.872Z,5615
2017-06-18T13:26:05.105Z,5895
2017-06-18T13:27:16.767Z,6115
2017-06-18T13:28:29.339Z,6215
2017-06-18T13:29:41.013Z,5925
2017-06-18T13:30:53.280Z,5750
2017-06-18T13:32:05.205Z,5530
2017-06-18T13:33:16.852Z,6290
2017-06-18T13:34:29.402Z,6285
2017-06-18T13:35:41.947Z,6240
2017-06-18T13:36:54.209Z,5985
2017-06-18T13:38:06.178Z,5840
2017-06-18T13:39:17.848Z,5750
2017-06-18T13:40:30.102Z,5865
2017-06-18T13:41:42.651Z,5905
2017-06-18T13:42:54.894Z,5810
2017-06-18T13:44:06.869Z,5390
2017-06-18T13:45:19.167Z,5100
2017-06-18T13:46:31.754Z,5365
2017-06-18T13:47:44.006Z,5375
2017-06-18T13:48:56.579Z,5170
2017-06-18T13:50:08.825Z,5195
2017-06-18T13:51:20.493Z,5385
2017-06-18T13:52:32.740Z,5145
2017-06-18T13:53:44.685Z,5060
2017-06-18T13:54:56.930Z,4795
2017-06-18T13:56:08.574Z,4900
2017-06-18T13:57:20.550Z,4960
2017-06-18T13:58:32.816Z,4700
2017-06-18T13:59:44.766Z,4835
2017-06-18T14:00:57.311Z,5140
2017-06-18T14:02:09.003Z,4865
2017-06-18T14:03:20.971Z,4850
2017-06-18T14:04:33.521Z,5070
2017-06-18T14:05:45.771Z,4830
2017-06-18T14:06:58.055Z,4705
2017-06-18T14:08:10.633Z,4815
2017-06-18T14:09:22.607Z,4810
2017-06-18T14:10:33.978Z,4965
2017-06-18T14:11:45.920Z,4965
2017-06-18T14:12:58.194Z,5135
2017-06-18T14:14:09.559Z,5145
2017-06-18T14:15:21.484Z,4905
2017-06-18T14:16:34.035Z,5160
2017-06-18T14:17:46.300Z,5285
2017-06-18T14:18:58.553Z,4990
2017-06-18T14:20:11.093Z,4775
2017-06-18T14:21:23.356Z,4820
2017-06-18T14:22:34.989Z,5100
2017-06-18T14:23:47.235Z,4960
2017-06-18T14:24:59.497Z,4480
2017-06-18T14:26:11.726Z,4145
2017-06-18T14:27:23.671Z,4250
2017-06-18T14:28:36.258Z,4430
2017-06-18T14:29:48.243Z,4455
2017-06-18T14:31:00.828Z,4310
2017-06-18T14:32:13.407Z,4185
2017-06-18T14:33:25.977Z,4120
2017-06-18T14:34:38.243Z,3950
2017-06-18T14:35:50.798Z,3785
2017-06-18T14:37:02.735Z,3855
2017-06-18T14:38:14.998Z,4245
2017-06-18T14:39:26.948Z,4480
2017-06-18T14:40:39.216Z,4370
2017-06-18T14:41:51.470Z,4310
2017-06-18T14:43:03.714Z,4085
2017-06-18T14:44:15.386Z,4235
2017-06-18T14:45:27.629Z,4130
2017-06-18T14:46:39.895Z,3865
2017-06-18T14:47:52.125Z,3845
2017-06-18T14:49:04.386Z,3240
2017-06-18T14:50:16.940Z,975
2017-06-18T14:51:28.891Z,295
2017-06-18T14:52:41.464Z,290
2017-06-18T14:53:54.005Z,285
2017-06-18T14:55:05.625Z,295
2017-06-18T14:56:17.877Z,280
2017-06-18T14:57:29.846Z,285
2017-06-18T14:58:41.808Z,280
2017-06-18T14:59:54.062Z,280
2017-06-18T15:01:06.624Z,280
2017-06-18T15:02:19.152Z,280
2017-06-18T15:03:31.425Z,285
2017-06-18T15:04:43.966Z,290
2017-06-18T15:05:55.629Z,295
2017-06-18T15:07:07.587Z,320
2017-06-18T15:08:19.550Z,300
2017-06-18T15:09:32.079Z,290
2017-06-18T15:10:44.617Z,285
2017-06-18T15:11:57.167Z,285
2017-06-18T15:13:09.689Z,305
2017-06-18T15:14:21.904Z,300
2017-06-18T15:15:33.861Z,315
2017-06-18T15:16:46.077Z,365
2017-06-18T15:17:58.622Z,415
2017-06-18T15:19:10.860Z,415
2017-06-18T15:20:22.809Z,400
2017-06-18T15:21:35.083Z,370
2017-06-18T15:22:47.034Z,345
2017-06-18T15:23:59.576Z,375
2017-06-18T15:25:10.916Z,325
2017-06-18T15:26:23.189Z,365
2017-06-18T15:27:35.742Z,390
2017-06-18T15:28:47.978Z,415
2017-06-18T15:29:59.934Z,440
2017-06-18T15:31:12.180Z,485
2017-06-18T15:32:24.722Z,450
2017-06-18T15:33:36.965Z,390
2017-06-18T15:34:49.235Z,415
2017-06-18T15:36:01.779Z,485
2017-06-18T15:37:14.034Z,435
2017-06-18T15:38:26.595Z,935
2017-06-18T15:39:38.823Z,1670
2017-06-18T15:40:51.347Z,2155
2017-06-18T15:42:03.570Z,1295
2017-06-18T15:43:16.137Z,1455
2017-06-18T15:44:28.660Z,445
2017-06-18T15:45:40.908Z,380
2017-06-18T15:46:53.448Z,330
2017-06-18T15:48:05.386Z,310
2017-06-18T15:49:17.640Z,305
2017-06-18T15:50:30.166Z,285
2017-06-18T15:51:42.712Z,275
2017-06-18T15:52:55.229Z,270
2017-06-18T15:54:07.449Z,265
2017-06-18T15:55:19.971Z,265
2017-06-18T15:56:31.612Z,280
2017-06-18T15:57:43.854Z,295
2017-06-18T15:58:55.783Z,330
2017-06-18T16:00:07.732Z,380
2017-06-18T16:01:20.250Z,435
2017-06-18T16:02:32.496Z,465
2017-06-18T16:03:45.021Z,480
2017-06-18T16:04:57.557Z,440
2017-06-18T16:06:09.813Z,395
2017-06-18T16:07:22.355Z,385
2017-06-18T16:08:34.904Z,400
2017-06-18T16:09:47.438Z,405
2017-06-18T16:10:59.386Z,400
2017-06-18T16:12:11.616Z,410
2017-06-18T16:13:24.184Z,415
2017-06-18T16:14:36.124Z,425
2017-06-18T16:15:48.649Z,445
2017-06-18T16:17:00.593Z,415
2017-06-18T16:18:12.213Z,360
2017-06-18T16:19:24.766Z,320
2017-06-18T16:20:37.031Z,280
2017-06-18T16:21:49.274Z,285
2017-06-18T16:23:01.802Z,275
2017-06-18T16:24:13.468Z,285
2017-06-18T16:25:26.046Z,290
2017-06-18T16:26:38.331Z,275
2017-06-18T16:27:50.267Z,240
2017-06-18T16:29:02.809Z,220
2017-06-18T16:30:15.095Z,210
2017-06-18T16:31:27.297Z,210
2017-06-18T16:32:39.222Z,225
2017-06-18T16:33:50.844Z,240